Fox, Oklahoma
Current Conditions -  °F | °C
As of 5:55 AM on Sunday 21 Dec 2014 (Local Time) from K1F0 Reporting Station
Haze Haze  
Wind Chill: 41°   Ceiling: 500
Heat Index: 45°   Visibility: 4mi
Dew Point: 43°   Wind: 6mph
Humidity: 93%   Direction: 170°S
Pressure: 30.08"   Gusts: NA
Location:  34.36°N, 97.49°W
Report Text: K1F0 211155Z AUTO 17005KT 4SM BR OVC005 07/06 A3008 RMK AO2
Loading
Personal Weather Stations






























Interactive Weather Map New forecast layout! Learn more

10-Day Weather Forecast

Advertisements
Track Severe Weather on mobile